Time;durP1;ratioP1;P1;durP2;ratioP2;P2;SDS_P1;SDS_P2;PMS_P1;PMS_P2;Temp;Humidity;BMP_temperature;BMP_pressure;BME280_temperature;BME280_humidity;BME280_pressure;Samples;Min_cycle;Max_cycle;Signal;HPM_P1;HPM_P2
2023/06/15 00:01:51;;;;;;;0.20;0.20;;;;;;;22.44;37.20;101181.69;5174039;28;20039;-82
2023/06/15 00:04:41;;;;;;;0.75;0.60;;;;;;;22.40;37.41;101174.00;5157731;28;20251;-82
2023/06/15 00:07:32;;;;;;;0.35;0.35;;;;;;;22.36;37.52;101176.00;5156126;28;20756;-83
2023/06/15 00:10:23;;;;;;;3.45;1.75;;;;;;;22.32;37.68;101183.38;5173581;28;20038;-83
2023/06/15 00:13:15;;;;;;;0.30;0.30;;;;;;;22.31;37.56;101181.66;5169845;28;20027;-83
2023/06/15 00:16:06;;;;;;;1.20;0.82;;;;;;;22.25;37.68;101175.88;5163626;28;20038;-82
2023/06/15 00:18:58;;;;;;;0.82;0.73;;;;;;;22.21;37.53;101177.06;5174451;28;20519;-82
2023/06/15 00:21:49;;;;;;;0.90;0.90;;;;;;;22.19;38.12;101176.31;5156257;28;20777;-83
2023/06/15 00:24:43;;;;;;;0.30;0.30;;;;;;;22.16;38.25;101182.72;5153409;28;20104;-83
2023/06/15 00:27:35;;;;;;;1.75;0.47;;;;;;;22.12;37.99;101178.53;5191816;28;20030;-81
2023/06/15 00:30:26;;;;;;;0.30;0.30;;;;;;;22.05;37.83;101180.78;5136629;28;20053;-81
2023/06/15 00:33:16;;;;;;;0.73;0.55;;;;;;;22.00;38.30;101183.78;5146967;28;20031;-81
2023/06/15 00:36:11;;;;;;;0.30;0.30;;;;;;;21.99;37.93;101183.84;5139104;28;20049;-82
2023/06/15 00:39:02;;;;;;;0.40;0.40;;;;;;;21.96;38.05;101192.94;5157582;28;20232;-83
2023/06/15 00:41:53;;;;;;;0.35;0.35;;;;;;;21.90;38.22;101185.34;5162301;28;20034;-83
2023/06/15 00:44:44;;;;;;;0.63;0.50;;;;;;;21.89;38.37;101185.47;5169204;28;20199;-82
2023/06/15 00:47:38;;;;;;;0.30;0.30;;;;;;;21.83;37.99;101186.72;5172050;28;20077;-83
2023/06/15 00:50:30;;;;;;;0.90;0.70;;;;;;;21.82;37.94;101190.34;5157337;28;20113;-82
2023/06/15 00:53:22;;;;;;;0.52;0.50;;;;;;;21.76;38.45;101190.78;5177870;28;20029;-81
2023/06/15 00:56:13;;;;;;;0.40;0.40;;;;;;;21.75;38.60;101205.09;5161178;28;20076;-82
2023/06/15 00:59:05;;;;;;;0.45;0.45;;;;;;;21.74;38.45;101192.69;5170345;28;20026;-81
2023/06/15 01:01:56;;;;;;;0.57;0.57;;;;;;;21.69;38.71;101204.50;5171519;28;20033;-83
2023/06/15 01:04:46;;;;;;;7.47;0.75;;;;;;;21.66;38.57;101194.06;5172160;28;20038;-83
2023/06/15 01:07:40;;;;;;;0.32;0.32;;;;;;;21.62;38.65;101195.22;5135329;28;20025;-82
2023/06/15 01:10:32;;;;;;;1.00;0.93;;;;;;;21.61;38.34;101200.66;5172744;28;20038;-82
2023/06/15 01:13:23;;;;;;;0.35;0.35;;;;;;;21.58;39.12;101200.84;5152330;28;20076;-82
2023/06/15 01:16:21;;;;;;;0.60;0.60;;;;;;;21.55;38.48;101199.22;5159613;28;20042;-84
2023/06/15 01:19:31;;;;;;;0.20;0.20;;;;;;;21.51;38.73;101201.22;5171760;28;20577;-82
2023/06/15 01:22:49;;;;;;;0.40;0.40;;;;;;;21.46;38.94;101202.47;5184598;28;20034;-84
2023/06/15 01:25:45;;;;;;;0.68;0.65;;;;;;;21.44;39.25;101191.91;5184908;28;20038;-81
2023/06/15 01:28:45;;;;;;;0.90;0.90;;;;;;;21.39;38.79;101194.88;5162195;28;20243;-83
2023/06/15 01:31:39;;;;;;;0.20;0.20;;;;;;;21.36;39.17;101203.09;5175251;28;20346;-83
2023/06/15 01:34:31;;;;;;;0.90;0.57;;;;;;;21.34;39.43;101197.00;5172342;28;20296;-84
2023/06/15 01:37:21;;;;;;;0.40;0.40;;;;;;;21.33;39.53;101197.97;5165849;28;20030;-82
2023/06/15 01:40:13;;;;;;;1.70;1.00;;;;;;;21.31;39.41;101202.53;5190205;28;20066;-82
2023/06/15 01:43:11;;;;;;;0.77;0.77;;;;;;;21.26;39.62;101196.66;5193169;28;20106;-80
2023/06/15 01:46:04;;;;;;;0.40;0.40;;;;;;;21.28;40.22;101201.88;5184316;28;20037;-82
2023/06/15 01:48:55;;;;;;;0.85;0.85;;;;;;;21.21;39.71;101201.41;5175616;28;20035;-81
2023/06/15 01:51:46;;;;;;;0.77;0.77;;;;;;;21.16;40.00;101206.19;5171037;28;20042;-82
2023/06/15 01:54:37;;;;;;;0.45;0.45;;;;;;;21.15;40.29;101208.03;5160321;28;20053;-84
2023/06/15 01:57:27;;;;;;;1.75;1.15;;;;;;;21.16;39.95;101211.53;5144255;28;20129;-82
2023/06/15 02:00:19;;;;;;;0.20;0.20;;;;;;;21.12;40.38;101210.88;5149761;28;20339;-82
2023/06/15 02:03:11;;;;;;;23.02;1.23;;;;;;;21.12;40.27;101205.53;5169676;28;20062;-82
2023/06/15 02:06:01;;;;;;;0.40;0.40;;;;;;;21.10;40.47;101209.28;5169891;28;20034;-82
2023/06/15 02:08:52;;;;;;;0.63;0.63;;;;;;;21.05;40.76;101213.06;5170220;28;20116;-83
2023/06/15 02:11:44;;;;;;;0.65;0.63;;;;;;;21.04;40.67;101205.19;5167044;28;20042;-82
2023/06/15 02:14:35;;;;;;;1.33;1.23;;;;;;;21.00;40.88;101207.19;5152927;28;20051;-82
2023/06/15 02:17:30;;;;;;;0.47;0.47;;;;;;;20.98;40.63;101213.56;5163678;28;20038;-82
2023/06/15 02:20:21;;;;;;;1.30;1.20;;;;;;;20.95;40.94;101219.94;5162487;28;20359;-83
2023/06/15 02:23:12;;;;;;;1.50;0.75;;;;;;;20.90;40.60;101219.38;5150223;28;20482;-83
2023/06/15 02:26:03;;;;;;;0.38;0.38;;;;;;;20.87;40.99;101214.22;5150920;28;20486;-82
2023/06/15 02:28:54;;;;;;;0.43;0.43;;;;;;;20.85;41.19;101214.34;5152358;28;20038;-81
2023/06/15 02:31:45;;;;;;;0.30;0.30;;;;;;;20.77;40.86;101216.63;5173699;28;20049;-82
2023/06/15 02:34:36;;;;;;;0.50;0.50;;;;;;;20.75;40.96;101216.72;5164148;28;20050;-82
2023/06/15 02:37:27;;;;;;;2.63;1.48;;;;;;;20.71;41.19;101217.81;5160158;28;20034;-83
2023/06/15 02:40:18;;;;;;;0.30;0.30;;;;;;;20.60;41.13;101213.16;5159458;28;20026;-81
2023/06/15 02:43:09;;;;;;;0.70;0.60;;;;;;;20.64;41.64;101213.81;5154353;28;20041;-82
2023/06/15 02:45:59;;;;;;;0.95;0.68;;;;;;;20.62;42.04;101213.06;5171535;28;20801;-82
2023/06/15 02:48:51;;;;;;;0.40;0.40;;;;;;;20.58;41.49;101217.72;5171703;28;20030;-83
2023/06/15 02:51:42;;;;;;;0.20;0.20;;;;;;;20.54;41.68;101212.66;5167834;28;20074;-84
2023/06/15 02:54:34;;;;;;;0.50;0.50;;;;;;;20.51;41.54;101215.53;5185825;28;20194;-82
2023/06/15 02:57:25;;;;;;;0.82;0.65;;;;;;;20.48;41.80;101218.38;5175977;28;20094;-82
2023/06/15 03:00:17;;;;;;;0.68;0.68;;;;;;;20.42;41.73;101215.16;5154363;28;20034;-83
2023/06/15 03:03:09;;;;;;;1.00;0.90;;;;;;;20.36;41.90;101215.53;5162189;28;20041;-82
2023/06/15 03:06:00;;;;;;;0.30;0.30;;;;;;;20.33;41.71;101220.19;5164389;28;20035;-82
2023/06/15 03:08:51;;;;;;;1.35;0.65;;;;;;;20.30;42.06;101223.88;5170701;28;20026;-82
2023/06/15 03:11:41;;;;;;;0.38;0.38;;;;;;;20.23;41.78;101219.88;5173072;28;20529;-82
2023/06/15 03:14:32;;;;;;;0.20;0.20;;;;;;;20.21;41.84;101222.63;5150203;28;20536;-83
2023/06/15 03:17:24;;;;;;;0.30;0.30;;;;;;;20.20;42.22;101220.91;5158080;28;20033;-82
2023/06/15 03:20:15;;;;;;;0.38;0.38;;;;;;;20.18;42.62;101233.47;5153677;28;20042;-81
2023/06/15 03:23:09;;;;;;;0.90;0.90;;;;;;;20.15;42.89;101238.13;5158556;28;20038;-83
2023/06/15 03:25:59;;;;;;;0.40;0.40;;;;;;;20.13;43.00;101239.06;5171785;28;20038;-83
2023/06/15 03:28:52;;;;;;;0.28;0.28;;;;;;;20.09;42.67;101240.22;5172629;28;20030;-83
2023/06/15 03:31:43;;;;;;;0.20;0.20;;;;;;;20.06;42.94;101239.53;5171461;28;20046;-83
2023/06/15 03:34:37;;;;;;;0.47;0.47;;;;;;;20.04;42.72;101234.28;5149953;28;20284;-83
2023/06/15 03:37:28;;;;;;;0.43;0.43;;;;;;;20.00;43.25;101235.41;5152222;28;20678;-82
2023/06/15 03:40:20;;;;;;;0.30;0.30;;;;;;;19.94;43.21;101233.13;5171091;28;20069;-82
2023/06/15 03:43:11;;;;;;;0.28;0.28;;;;;;;19.94;43.22;101241.97;5173233;28;20027;-82
2023/06/15 03:46:02;;;;;;;0.40;0.40;;;;;;;19.90;43.06;101239.56;5171281;28;20058;-82
2023/06/15 03:48:53;;;;;;;0.40;0.40;;;;;;;19.86;43.34;101238.03;5175413;28;20386;-82
2023/06/15 03:51:43;;;;;;;0.98;0.98;;;;;;;19.82;43.60;101238.19;5171097;28;20050;-81
2023/06/15 03:54:34;;;;;;;0.30;0.30;;;;;;;19.79;43.47;101249.00;5170877;28;20072;-83
2023/06/15 03:57:25;;;;;;;0.52;0.52;;;;;;;19.79;43.60;101248.16;5182081;28;20096;-83
2023/06/15 04:00:16;;;;;;;0.43;0.43;;;;;;;19.77;43.92;101250.91;5159114;28;20076;-84
2023/06/15 04:03:09;;;;;;;1.92;1.83;;;;;;;19.73;44.08;101254.69;5176183;28;20454;-83
2023/06/15 04:06:04;;;;;;;0.40;0.40;;;;;;;19.75;44.09;101246.63;5162795;28;20109;-82
2023/06/15 04:08:54;;;;;;;2.90;0.30;;;;;;;19.70;44.10;101254.88;5178259;28;20034;-82
2023/06/15 04:11:45;;;;;;;1.90;1.05;;;;;;;19.67;44.05;101249.72;5173511;28;20046;-82
2023/06/15 04:14:36;;;;;;;0.57;0.57;;;;;;;19.66;43.55;101258.63;5168504;28;20136;-82
2023/06/15 04:17:27;;;;;;;5.38;0.98;;;;;;;19.64;44.45;101253.41;5173415;28;20030;-84
2023/06/15 04:20:17;;;;;;;0.63;0.63;;;;;;;19.62;44.34;101257.13;5181512;28;20026;-82
2023/06/15 04:23:08;;;;;;;0.32;0.32;;;;;;;19.60;44.26;101256.34;5168361;28;20034;-85
2023/06/15 04:26:00;;;;;;;1.80;1.33;;;;;;;19.57;44.63;101251.16;5154230;28;20022;-84
2023/06/15 04:28:52;;;;;;;0.77;0.77;;;;;;;19.57;45.17;101259.16;5155558;28;20113;-84
2023/06/15 04:31:44;;;;;;;4.45;1.17;;;;;;;19.56;45.08;101258.31;5149846;28;20035;-83
2023/06/15 04:34:34;;;;;;;0.55;0.55;;;;;;;19.55;44.88;101263.69;5153041;28;20026;-83
2023/06/15 04:37:28;;;;;;;0.55;0.55;;;;;;;19.54;45.14;101259.34;5157094;28;20146;-85
2023/06/15 04:40:20;;;;;;;1.17;1.08;;;;;;;19.51;44.63;101260.34;5164159;28;20245;-84
2023/06/15 04:43:11;;;;;;;0.52;0.52;;;;;;;19.50;45.14;101264.84;5153510;28;20034;-83
2023/06/15 04:46:01;;;;;;;0.25;0.25;;;;;;;19.49;45.09;101268.44;5152720;28;20080;-84
2023/06/15 04:48:52;;;;;;;0.88;0.88;;;;;;;19.48;45.45;101261.38;5161200;28;20065;-85
2023/06/15 04:51:43;;;;;;;0.32;0.25;;;;;;;19.48;45.33;101264.06;5139492;28;20058;-84
2023/06/15 04:54:34;;;;;;;0.95;0.95;;;;;;;19.41;45.42;101278.66;5172716;28;20057;-84
2023/06/15 04:57:25;;;;;;;0.50;0.50;;;;;;;19.42;45.10;101274.19;5177575;28;20026;-84
2023/06/15 05:00:16;;;;;;;0.40;0.40;;;;;;;19.40;45.21;101278.75;5167329;28;20046;-84
2023/06/15 05:03:08;;;;;;;0.20;0.20;;;;;;;19.40;45.93;101281.41;5162063;28;20030;-84
2023/06/15 05:05:58;;;;;;;1.20;1.10;;;;;;;19.41;44.86;101285.78;5165957;28;20033;-83
2023/06/15 05:08:50;;;;;;;0.50;0.50;;;;;;;19.32;46.11;101287.13;5172852;28;20046;-84
2023/06/15 05:11:41;;;;;;;1.98;0.45;;;;;;;19.35;45.42;101286.97;5156265;28;20062;-83
2023/06/15 05:14:31;;;;;;;0.20;0.20;;;;;;;19.31;45.05;101288.06;5145080;28;20034;-84
2023/06/15 05:17:23;;;;;;;0.30;0.30;;;;;;;19.32;45.32;101292.47;5148245;28;20355;-85
2023/06/15 05:20:14;;;;;;;0.77;0.77;;;;;;;19.34;46.10;101295.91;5156590;28;20094;-84
2023/06/15 05:23:05;;;;;;;0.45;0.45;;;;;;;19.33;45.44;101292.41;5150861;28;20038;-85
2023/06/15 05:25:56;;;;;;;0.75;0.75;;;;;;;19.36;45.68;101296.69;5168873;28;20026;-85
2023/06/15 05:28:47;;;;;;;0.30;0.30;;;;;;;19.43;45.00;101294.53;5151517;28;20046;-84
2023/06/15 05:31:38;;;;;;;0.50;0.50;;;;;;;19.43;45.79;101292.72;5148328;28;20046;-83
2023/06/15 05:34:28;;;;;;;1.55;0.85;;;;;;;19.41;45.14;101291.94;5169323;28;20034;-84
2023/06/15 05:37:19;;;;;;;0.20;0.20;;;;;;;19.47;45.68;101296.94;5168155;28;20559;-85
2023/06/15 05:40:10;;;;;;;0.40;0.40;;;;;;;19.46;45.39;101295.22;5154477;28;20303;-84
2023/06/15 05:43:02;;;;;;;0.47;0.47;;;;;;;19.51;45.05;101292.28;5166754;28;20127;-86
2023/06/15 05:45:53;;;;;;;0.30;0.30;;;;;;;19.53;45.10;101294.88;5168646;28;20033;-86
2023/06/15 05:48:43;;;;;;;1.20;0.88;;;;;;;19.39;46.33;101299.16;5171686;28;20038;-84
2023/06/15 05:51:34;;;;;;;5.57;3.15;;;;;;;19.52;45.52;101304.66;5153840;28;20141;-85
2023/06/15 05:54:25;;;;;;;0.57;0.57;;;;;;;19.60;45.50;101290.94;5133532;28;20497;-85
2023/06/15 05:57:16;;;;;;;0.55;0.55;;;;;;;19.63;45.19;101298.72;5163770;28;20039;-84
2023/06/15 06:00:09;;;;;;;0.47;0.47;;;;;;;19.66;45.48;101307.44;5165652;28;20030;-84
2023/06/15 06:03:01;;;;;;;0.93;0.57;;;;;;;19.64;45.83;101298.66;5164570;28;20800;-85
2023/06/15 06:05:51;;;;;;;1.20;1.08;;;;;;;19.67;45.73;101302.94;5151687;28;20026;-84
2023/06/15 06:08:42;;;;;;;1.45;1.35;;;;;;;19.71;46.13;101300.97;5150092;28;20034;-84
2023/06/15 06:11:34;;;;;;;1.35;0.95;;;;;;;19.76;45.42;101306.88;5149427;28;20085;-84
2023/06/15 06:14:25;;;;;;;0.52;0.52;;;;;;;19.72;47.28;101300.88;5161913;28;20045;-85
2023/06/15 06:17:16;;;;;;;0.40;0.40;;;;;;;19.75;45.69;101308.69;5151851;28;20054;-84
2023/06/15 06:20:07;;;;;;;0.50;0.50;;;;;;;19.81;46.02;101300.34;5149210;28;20038;-85
2023/06/15 06:22:58;;;;;;;1.08;1.00;;;;;;;19.78;46.59;101316.53;5151127;28;20038;-84
2023/06/15 06:25:49;;;;;;;0.65;0.65;;;;;;;19.88;45.54;101302.69;5151093;28;20035;-84
2023/06/15 06:28:40;;;;;;;1.55;1.00;;;;;;;19.94;45.72;101297.03;5152649;28;20147;-84
2023/06/15 06:31:31;;;;;;;0.88;0.88;;;;;;;19.90;45.68;101300.81;5149910;28;20046;-84
2023/06/15 06:34:22;;;;;;;0.47;0.47;;;;;;;19.94;45.52;101299.69;5167824;28;20560;-83
2023/06/15 06:37:13;;;;;;;0.30;0.30;;;;;;;19.99;45.42;101297.63;5148337;28;20717;-85
2023/06/15 06:40:04;;;;;;;1.80;0.70;;;;;;;19.96;46.58;101298.66;5152971;28;20030;-85
2023/06/15 06:42:55;;;;;;;0.65;0.65;;;;;;;20.02;45.30;101302.78;5145739;28;20601;-84
2023/06/15 06:45:45;;;;;;;0.35;0.35;;;;;;;20.09;45.80;101297.94;5164082;28;20010;-84
2023/06/15 06:48:37;;;;;;;1.13;0.50;;;;;;;20.17;45.24;101300.16;5178829;28;20041;-84
2023/06/15 06:51:28;;;;;;;0.30;0.30;;;;;;;20.15;45.77;101299.38;5161453;28;20042;-85
2023/06/15 06:54:19;;;;;;;0.82;0.82;;;;;;;20.13;46.31;101294.16;5146103;28;20571;-84
2023/06/15 06:57:11;;;;;;;1.17;0.50;;;;;;;20.21;45.55;101299.03;5148903;28;20117;-84
2023/06/15 07:00:03;;;;;;;0.22;0.22;;;;;;;20.24;45.98;101301.53;5148983;28;20127;-85
2023/06/15 07:02:54;;;;;;;0.40;0.40;;;;;;;20.31;45.52;101299.38;5168224;28;20033;-84
2023/06/15 07:05:45;;;;;;;1.33;1.23;;;;;;;20.37;45.55;101309.66;5174733;28;20026;-84
2023/06/15 07:08:35;;;;;;;0.40;0.40;;;;;;;20.35;46.38;101308.88;5181343;28;20037;-84
2023/06/15 07:11:27;;;;;;;0.30;0.30;;;;;;;20.41;46.03;101308.53;5163490;28;20046;-85
2023/06/15 07:14:19;;;;;;;1.35;0.47;;;;;;;20.48;45.18;101311.66;5164646;28;20034;-84
2023/06/15 07:17:11;;;;;;;1.00;0.95;;;;;;;20.52;45.78;101313.22;5169407;28;20413;-83
2023/06/15 07:20:02;;;;;;;0.22;0.22;;;;;;;20.54;46.70;101324.63;5177280;28;20065;-84
2023/06/15 07:22:53;;;;;;;1.33;1.23;;;;;;;20.60;45.53;101318.94;5153246;28;20448;-84
2023/06/15 07:25:44;;;;;;;0.52;0.52;;;;;;;20.60;46.19;101318.94;5149893;28;20339;-85
2023/06/15 07:28:35;;;;;;;0.28;0.28;;;;;;;20.68;45.88;101310.47;5171512;28;20510;-86
2023/06/15 07:31:25;;;;;;;0.28;0.28;;;;;;;20.68;46.85;101324.69;5153772;28;20034;-86
2023/06/15 07:34:16;;;;;;;0.30;0.30;;;;;;;20.69;46.00;101312.19;5150779;28;20022;-85
2023/06/15 07:37:07;;;;;;;0.40;0.40;;;;;;;20.77;46.08;101309.94;5157415;28;20038;-84
2023/06/15 07:39:58;;;;;;;0.55;0.55;;;;;;;20.79;45.87;101312.50;5140700;28;20026;-85
2023/06/15 07:42:49;;;;;;;0.40;0.40;;;;;;;20.85;45.46;101307.69;5152810;28;20331;-84
2023/06/15 07:45:41;;;;;;;0.68;0.35;;;;;;;20.98;45.36;101310.44;5168985;28;20038;-83
2023/06/15 07:48:32;;;;;;;0.30;0.30;;;;;;;21.05;45.67;101308.25;5166964;28;20034;-83
2023/06/15 07:51:23;;;;;;;0.35;0.35;;;;;;;20.99;46.54;101309.50;5165629;28;20044;-84
2023/06/15 07:54:14;;;;;;;0.20;0.20;;;;;;;21.04;46.17;101317.22;5166466;28;20188;-84
2023/06/15 07:57:05;;;;;;;0.40;0.40;;;;;;;21.03;45.70;101316.34;5174671;28;20111;-85
2023/06/15 07:59:57;;;;;;;0.40;0.40;;;;;;;21.08;46.24;101310.72;5170321;28;20038;-84
2023/06/15 08:02:48;;;;;;;0.20;0.20;;;;;;;21.18;45.38;101314.53;5166539;28;20057;-83
2023/06/15 08:05:39;;;;;;;0.55;0.55;;;;;;;21.20;45.60;101315.31;5167151;28;20033;-85
2023/06/15 08:08:30;;;;;;;0.30;0.30;;;;;;;21.22;45.39;101320.53;5167755;28;20073;-84
2023/06/15 08:11:20;;;;;;;0.20;0.20;;;;;;;21.28;45.43;101317.47;5173421;28;20050;-84
2023/06/15 08:14:12;;;;;;;0.43;0.43;;;;;;;21.34;45.20;101318.91;5180349;28;20033;-84
2023/06/15 08:17:03;;;;;;;2.40;0.50;;;;;;;21.38;45.40;101313.28;5164249;28;20068;-84
2023/06/15 08:19:54;;;;;;;0.35;0.35;;;;;;;21.42;44.07;101313.09;5165802;28;20034;-84
2023/06/15 08:22:45;;;;;;;0.20;0.20;;;;;;;21.44;43.44;101308.53;5146998;28;20038;-84
2023/06/15 08:25:36;;;;;;;0.52;0.50;;;;;;;21.48;43.62;101294.00;5152530;28;20031;-84
2023/06/15 08:28:26;;;;;;;0.20;0.20;;;;;;;21.49;43.50;101306.41;5152873;28;20038;-84
2023/06/15 08:31:18;;;;;;;2.72;0.85;;;;;;;21.59;43.62;101296.88;5146653;28;20053;-84
2023/06/15 08:34:09;;;;;;;0.30;0.30;;;;;;;21.63;43.42;101300.22;5167476;28;20619;-84
2023/06/15 08:37:00;;;;;;;0.60;0.60;;;;;;;21.55;42.31;101300.66;5162926;28;20246;-84
2023/06/15 08:39:51;;;;;;;0.30;0.30;;;;;;;21.76;42.55;101302.94;5168250;28;20025;-84
2023/06/15 08:42:42;;;;;;;0.43;0.43;;;;;;;21.75;43.24;101306.56;5151941;28;20073;-85
2023/06/15 08:45:39;;;;;;;0.50;0.50;;;;;;;21.84;42.94;101300.63;5148652;28;20038;-84
2023/06/15 08:48:32;;;;;;;0.73;0.47;;;;;;;21.87;43.32;101300.41;5157510;28;20042;-85
2023/06/15 08:51:23;;;;;;;0.40;0.40;;;;;;;21.92;42.89;101306.31;5173630;28;20061;-85
2023/06/15 08:54:18;;;;;;;0.30;0.30;;;;;;;22.02;42.54;101307.41;5164205;28;20184;-83
2023/06/15 08:57:09;;;;;;;1.35;0.98;;;;;;;22.04;42.73;101307.31;5145667;28;20043;-84
2023/06/15 09:00:00;;;;;;;0.50;0.50;;;;;;;22.20;39.78;101312.50;5149210;28;20023;-85
2023/06/15 09:02:53;;;;;;;0.38;0.38;;;;;;;22.13;40.54;101300.50;5148007;28;20046;-83
2023/06/15 09:05:44;;;;;;;;;;;;;;;22.22;40.83;101307.91;5167211;28;20037;-83
2023/06/15 09:08:35;;;;;;;0.63;0.52;;;;;;;22.27;41.28;101308.44;5148490;28;19918;-83
2023/06/15 09:11:26;;;;;;;0.40;0.40;;;;;;;22.42;41.38;101306.59;5155147;28;20630;-84
2023/06/15 09:14:17;;;;;;;1.75;0.88;;;;;;;22.41;41.41;101301.34;5148795;28;20144;-84
2023/06/15 09:17:12;;;;;;;0.30;0.30;;;;;;;22.40;42.40;101295.13;5153012;28;20057;-83
2023/06/15 09:20:05;;;;;;;0.55;0.47;;;;;;;22.54;40.92;101299.53;5147716;28;20029;-85
2023/06/15 09:23:01;;;;;;;0.88;0.88;;;;;;;22.51;40.11;101299.78;5148235;28;20034;-84
2023/06/15 09:25:53;;;;;;;0.80;0.50;;;;;;;22.56;40.26;101294.94;5170195;28;20034;-85
2023/06/15 09:28:45;;;;;;;0.98;0.82;;;;;;;22.62;40.05;101289.16;5160373;28;20070;-83
2023/06/15 09:31:36;;;;;;;1.35;0.65;;;;;;;22.79;38.33;101292.50;5151996;28;20046;-84
2023/06/15 09:34:27;;;;;;;0.40;0.40;;;;;;;22.71;38.33;101301.06;5159818;28;20030;-84
2023/06/15 09:37:18;;;;;;;0.70;0.70;;;;;;;22.86;38.28;101295.59;5169071;28;20046;-84
2023/06/15 09:40:10;;;;;;;4.13;0.93;;;;;;;22.77;38.20;101289.94;5149682;28;20117;-83
2023/06/15 09:43:01;;;;;;;7.22;1.85;;;;;;;22.78;38.85;101283.63;5144227;28;20073;-83
2023/06/15 09:45:53;;;;;;;3.72;1.38;;;;;;;22.81;38.00;101285.22;5147924;28;20022;-84
2023/06/15 09:48:44;;;;;;;0.55;0.40;;;;;;;22.88;39.12;101280.31;5145859;28;20050;-85
2023/06/15 09:51:35;;;;;;;0.55;0.40;;;;;;;22.98;40.19;101281.34;5152181;28;20045;-84
2023/06/15 09:54:29;;;;;;;0.20;0.20;;;;;;;23.06;39.46;101280.81;5147154;28;20030;-84
2023/06/15 09:57:20;;;;;;;0.57;0.57;;;;;;;23.23;38.82;101279.63;5148361;28;20038;-84
2023/06/15 10:00:12;;;;;;;18.20;2.60;;;;;;;23.30;37.00;101282.72;5166693;28;20026;-84
2023/06/15 10:03:06;;;;;;;0.30;0.30;;;;;;;23.32;37.43;101281.63;5144859;28;20517;-85
2023/06/15 10:06:11;;;;;;;3.42;1.30;;;;;;;23.38;38.00;101277.66;5162736;28;20474;-86
2023/06/15 10:09:06;;;;;;;0.93;0.93;;;;;;;23.42;38.28;101281.84;5161317;28;20100;-86
2023/06/15 10:12:05;;;;;;;0.50;0.50;;;;;;;23.54;37.50;101282.78;5143384;28;20082;-83
2023/06/15 10:15:09;;;;;;;0.28;0.28;;;;;;;23.62;38.95;101276.84;5149540;28;20474;-84
2023/06/15 10:18:02;;;;;;;;;;;;;;;23.64;38.71;101282.94;5154730;28;20072;-84
2023/06/15 10:20:54;;;;;;;0.57;0.57;;;;;;;23.72;37.29;101280.56;5164443;28;19924;-85
2023/06/15 10:23:48;;;;;;;0.63;0.63;;;;;;;23.86;37.32;101276.84;5132538;28;20059;-84
2023/06/15 10:26:40;;;;;;;3.10;1.25;;;;;;;23.87;38.04;101281.25;5144832;28;20034;-84
2023/06/15 10:29:38;;;;;;;0.70;0.70;;;;;;;23.89;37.19;101280.16;5158951;28;20022;-84
2023/06/15 10:32:43;;;;;;;0.68;0.68;;;;;;;23.95;37.58;101286.03;5149067;28;20053;-84
2023/06/15 10:36:04;;;;;;;0.40;0.40;;;;;;;24.14;36.75;101280.13;5149635;28;20030;-84
2023/06/15 10:39:16;;;;;;;0.40;0.40;;;;;;;24.08;36.20;101272.56;5158658;28;20022;-85
2023/06/15 10:42:08;;;;;;;0.50;0.50;;;;;;;24.03;35.74;101271.09;5179766;28;20028;-85
2023/06/15 10:44:59;;;;;;;0.77;0.77;;;;;;;24.12;35.93;101272.22;5185501;28;20038;-86
2023/06/15 10:47:50;;;;;;;0.60;0.60;;;;;;;24.06;35.23;101264.66;5159236;28;20029;-84
2023/06/15 10:50:48;;;;;;;0.40;0.40;;;;;;;24.13;35.42;101270.41;5153115;28;20161;-84
2023/06/15 10:53:41;;;;;;;0.40;0.40;;;;;;;24.11;35.11;101267.00;5179895;28;20038;-85
2023/06/15 10:56:32;;;;;;;;;;;;;;;24.08;35.05;101275.25;5167814;28;20031;-83
2023/06/15 10:59:54;;;;;;;0.40;0.35;;;;;;;24.10;35.87;101271.47;5168126;28;19914;-85
2023/06/15 11:02:47;;;;;;;0.65;0.65;;;;;;;24.11;35.91;101273.19;5176029;28;20070;-85
2023/06/15 11:05:44;;;;;;;0.20;0.20;;;;;;;24.10;36.05;101271.47;5158403;28;20857;-85
2023/06/15 11:08:50;;;;;;;0.47;0.43;;;;;;;24.16;35.90;101268.34;5170946;28;20034;-84
2023/06/15 11:11:42;;;;;;;0.77;0.73;;;;;;;24.07;34.73;101265.50;5157448;28;20106;-85
2023/06/15 11:14:33;;;;;;;9.37;0.63;;;;;;;24.11;34.75;101261.63;5151646;28;20058;-86
2023/06/15 11:17:24;;;;;;;1.65;1.20;;;;;;;24.18;33.39;101260.19;5159407;28;20030;-85
2023/06/15 11:20:37;;;;;;;11.40;2.72;;;;;;;24.28;34.75;101257.66;5152664;28;20303;-88
2023/06/15 11:23:32;;;;;;;0.22;0.22;;;;;;;24.31;34.70;101260.94;5169677;28;20037;-84
2023/06/15 11:26:29;;;;;;;0.57;0.57;;;;;;;24.41;35.69;101255.75;5161149;28;20030;-84
2023/06/15 11:29:25;;;;;;;0.70;0.45;;;;;;;24.46;35.89;101248.19;5160145;28;20030;-85
2023/06/15 11:32:16;;;;;;;0.68;0.68;;;;;;;24.60;35.20;101248.91;5157227;28;20587;-85
2023/06/15 11:35:10;;;;;;;0.95;0.93;;;;;;;24.74;35.28;101246.06;5168479;28;20104;-84
2023/06/15 11:38:01;;;;;;;0.70;0.70;;;;;;;24.82;35.27;101242.75;5154214;28;20030;-86
2023/06/15 11:41:05;;;;;;;0.60;0.60;;;;;;;25.03;34.71;101245.56;5136257;28;21006;-85
2023/06/15 11:43:57;;;;;;;0.60;0.60;;;;;;;25.18;34.37;101237.22;5153626;28;20057;-84
2023/06/15 11:46:58;;;;;;;0.65;0.65;;;;;;;25.34;34.12;101232.31;5166673;28;20409;-86
2023/06/15 11:49:49;;;;;;;1.95;1.15;;;;;;;25.64;34.10;101233.50;5170497;28;20118;-85
2023/06/15 11:52:44;;;;;;;0.68;0.68;;;;;;;25.56;34.46;101230.59;5135848;28;20533;-86
2023/06/15 11:55:42;;;;;;;1.15;1.05;;;;;;;25.68;33.31;101229.56;5152879;28;20027;-85
2023/06/15 11:58:33;;;;;;;0.30;0.30;;;;;;;25.73;31.59;101227.34;5165786;28;20432;-85
2023/06/15 12:01:26;;;;;;;0.10;0.10;;;;;;;25.73;31.64;101234.53;5169924;28;20150;-86
2023/06/15 12:04:17;;;;;;;0.40;0.40;;;;;;;25.75;32.19;101225.38;5147593;28;20023;-85
2023/06/15 12:07:08;;;;;;;0.90;0.90;;;;;;;25.67;31.33;101227.00;5167082;28;20058;-84
2023/06/15 12:10:00;;;;;;;0.65;0.60;;;;;;;25.65;31.73;101227.16;5167830;28;20026;-85
2023/06/15 12:12:51;;;;;;;0.50;0.50;;;;;;;25.63;31.15;101226.41;5145285;28;20034;-84
2023/06/15 12:15:46;;;;;;;0.50;0.50;;;;;;;25.60;31.37;101221.28;5166794;28;20061;-85
2023/06/15 12:18:37;;;;;;;0.43;0.43;;;;;;;25.54;30.77;101221.81;5163613;28;20052;-85
2023/06/15 12:21:33;;;;;;;0.50;0.43;;;;;;;25.41;31.47;101220.09;5139891;28;20050;-85
2023/06/15 12:24:24;;;;;;;0.57;0.57;;;;;;;25.55;31.72;101221.66;5164727;28;20029;-85
2023/06/15 12:27:16;;;;;;;0.30;0.30;;;;;;;25.84;31.62;101217.50;5168442;28;20090;-84
2023/06/15 12:30:17;;;;;;;1.17;0.93;;;;;;;25.77;30.65;101217.19;5154899;28;20049;-84
2023/06/15 12:33:27;;;;;;;1.45;0.98;;;;;;;25.92;31.38;101209.66;5162707;28;20080;-85
2023/06/15 12:36:19;;;;;;;0.30;0.30;;;;;;;26.11;31.74;101200.06;5149624;28;20026;-86
2023/06/15 12:39:11;;;;;;;0.60;0.60;;;;;;;26.18;32.08;101188.66;5143507;28;20030;-86
2023/06/15 12:42:02;;;;;;;0.45;0.45;;;;;;;26.20;30.56;101191.19;5150968;28;20041;-85
2023/06/15 12:44:52;;;;;;;0.55;0.55;;;;;;;26.50;30.62;101190.38;5153483;28;20093;-86
2023/06/15 12:47:43;;;;;;;10.15;0.85;;;;;;;26.52;29.68;101193.78;5156222;28;20549;-85
2023/06/15 12:50:34;;;;;;;0.60;0.60;;;;;;;26.38;29.65;101188.75;5168057;28;20026;-85
2023/06/15 12:53:25;;;;;;;0.60;0.60;;;;;;;26.51;30.19;101192.09;5173553;28;20050;-83
2023/06/15 12:56:16;;;;;;;1.65;0.38;;;;;;;26.55;28.88;101195.34;5154370;28;20453;-86
2023/06/15 12:59:07;;;;;;;0.32;0.32;;;;;;;26.60;28.53;101185.03;5170204;28;20036;-86
2023/06/15 13:01:58;;;;;;;0.57;0.57;;;;;;;26.74;28.24;101177.56;5169431;28;20045;-86
2023/06/15 13:04:51;;;;;;;4.07;1.05;;;;;;;27.21;29.09;101172.50;5145680;28;20058;-86
2023/06/15 13:07:41;;;;;;;0.68;0.68;;;;;;;27.29;28.86;101174.47;5147585;28;20097;-87
2023/06/15 13:10:32;;;;;;;0.50;0.50;;;;;;;27.43;28.66;101167.84;5177233;28;20498;-85
2023/06/15 13:13:23;;;;;;;1.17;0.40;;;;;;;27.44;26.69;101174.94;5149350;28;20037;-85
2023/06/15 13:16:14;;;;;;;0.40;0.40;;;;;;;27.49;27.20;101167.28;5168596;28;20026;-84
2023/06/15 13:19:07;;;;;;;0.75;0.45;;;;;;;27.39;28.00;101177.19;5162971;28;20037;-85
2023/06/15 13:21:58;;;;;;;0.50;0.50;;;;;;;27.37;27.81;101187.25;5143829;28;20603;-85
2023/06/15 13:24:48;;;;;;;1.33;0.82;;;;;;;27.21;28.02;101180.56;5153338;28;20031;-85